LGSRLGRP

Guest
Details From LGSR - SANTORINI
To LGRP - DIAGORAS
Flight Number -
Tags generated
Created
Modified
Stats Distance 126 nm / 234 km
Max Altitude 13,800 ft / 4,206 m
Waypoints 3
Social Downloads 2
Likes 0
Share VATSIM

Download

Looking for another format? Having issues loading an existing format? Contact us
Advertisement - Login to hide

Notes

Basic altitude profile: - Ascent Rate: 2500ft/min - Ascent Speed: 250kts - Cruise Altitude: 35000ft - Cruise Speed: 420kts - Descent Rate: 1500ft/min - Descent Speed: 250kts Options: - Use NATs: yes - Use PACOTS: yes - Use low airways: yes - Use high airways: yes

Route

LGSR NAXAS LGRP

ID Type Via Altitude Latitude Longitude Leg Dist Tot Dist Heading (true) Name
O LGSR APT - 0 ft / 0 m 36.39895˚ 25.47851˚ - 0 nm - SANTORINI
NAXAS FIX - 13,800 ft / 4,206 m 36.35750˚ 26.74889˚ 61 nm 61 nm 92° / 93° -
O LGRP APT - 0 ft / 0 m 36.40542˚ 28.08619˚ 64 nm 126 nm 87° / 88° DIAGORAS

Altitude Profile

Advertisement - Login to hide

LGSR

Details ICAO LGSR (JTR)
Name SANTORINI
Region Greece
Timezone Europe/Athens (UTC+2.0)
Stats Elevation 127 ft / 39 m (AMSL)
Location 36.398949° 25.478507°
Runways 2
Magnetic Variation 4.512° E

METAR

LGSR 130450Z 26010KT 9999 FEW015 SCT020 16/14 Q1021 BLU

Decode

TAF

TAF LGSR 122300Z 1300/1324 27014KT 9999 FEW020 BECMG 1322/1324 27018G28KT

Decode

Departure Runways

ID Width Length Bearing (true) Bearing (mag) Surface Threshold Offset Overrun Length
16L 98 ft / 30 m 6,978 ft / 2,127 m 159.53° 155.02° Asphalt 0 ft / 0 m 909 ft / 277 m
16R 98 ft / 30 m 6,969 ft / 2,124 m 159.56° 155.05° Asphalt 0 ft / 0 m 420 ft / 128 m
34L 98 ft / 30 m 6,969 ft / 2,124 m 339.56° 335.05° Asphalt 0 ft / 0 m 0 ft / 0 m
34R 98 ft / 30 m 6,978 ft / 2,127 m 339.54° 335.03° Asphalt 0 ft / 0 m 0 ft / 0 m

LGRP

Details ICAO LGRP (RHO)
Name DIAGORAS
Region Greece
Timezone Europe/Athens (UTC+2.0)
Stats Elevation 17 ft / 5 m (AMSL)
Location 36.405420° 28.086193°
Runways 1
Magnetic Variation 4.780° E

METAR

LGRP 130450Z 29011KT 9999 FEW015 17/12 Q1020 NOSIG

Decode

TAF

TAF LGRP 122300Z 1300/1324 28010KT 9999 FEW015 SCT050 TEMPO 1306/1318 29010G20KT

Decode

Destination Runways

ID Width Length Bearing (true) Bearing (mag) Surface Threshold Offset Overrun Length
07 148 ft / 45 m 10,830 ft / 3,301 m 69.97° 65.19° Asphalt 0 ft / 0 m 0 ft / 0 m
25 148 ft / 45 m 10,830 ft / 3,301 m 249.99° 245.21° Asphalt 0 ft / 0 m 0 ft / 0 m

Approach Navaids

Runway Type Ident Frequency Range Bearing (true) Bearing (mag) Slope Elevation
25 Localiser IRDS 110.30 MHz 18 nm / 33 km 250.45° 245.67° - 17 ft / 5 m (AMSL)
25 Glidescope IRDS 110.30 MHz 10 nm / 19 km 249.98° 245.20° 3.00° 17 ft / 5 m (AMSL)

Popular Alternatives